createdAt,value
2022-10-18T00:02:17.102Z,99185.53
2022-10-18T00:04:43.704Z,99188.84
2022-10-18T00:07:10.398Z,99193.19
2022-10-18T00:09:37.650Z,99201.00
2022-10-18T00:12:06.535Z,99193.53
2022-10-18T00:14:33.156Z,99201.19
2022-10-18T00:16:59.856Z,99201.84
2022-10-18T00:19:29.182Z,99199.50
2022-10-18T00:21:56.323Z,99201.00
2022-10-18T00:24:23.000Z,99203.50
2022-10-18T00:26:49.619Z,99201.53
2022-10-18T00:29:17.189Z,99206.03
2022-10-18T00:31:44.387Z,99207.69
2022-10-18T00:34:16.254Z,99208.69
2022-10-18T00:36:44.041Z,99209.69
2022-10-18T00:39:17.928Z,99203.38
2022-10-18T00:41:44.827Z,99205.69
2022-10-18T00:44:11.383Z,99201.38
2022-10-18T00:46:43.112Z,99201.19
2022-10-18T00:49:16.745Z,99193.53
2022-10-18T00:52:05.368Z,99203.19
2022-10-18T00:54:36.004Z,99202.88
2022-10-18T00:57:02.815Z,99203.34
2022-10-18T00:59:29.556Z,99199.84
2022-10-18T01:01:56.295Z,99202.34
2022-10-18T01:04:23.381Z,99200.53
2022-10-18T01:07:15.418Z,99202.69
2022-10-18T01:10:16.266Z,99202.19
2022-10-18T01:12:57.543Z,99206.69
2022-10-18T01:15:26.395Z,99207.38
2022-10-18T01:18:02.005Z,99200.50
2022-10-18T01:20:58.747Z,99201.34
2022-10-18T01:23:31.504Z,99194.16
2022-10-18T01:26:26.951Z,99195.19
2022-10-18T01:29:02.820Z,99194.00
2022-10-18T01:31:59.652Z,99189.84
2022-10-18T01:34:28.157Z,99190.31
2022-10-18T01:36:55.857Z,99195.50
2022-10-18T01:39:29.036Z,99198.16
2022-10-18T01:41:57.215Z,99197.00
2022-10-18T01:44:26.403Z,99197.84
2022-10-18T01:46:55.212Z,99199.66
2022-10-18T01:49:22.038Z,99195.00
2022-10-18T01:51:48.715Z,99185.81
2022-10-18T01:54:19.633Z,99196.50
2022-10-18T01:59:48.609Z,99190.16
2022-10-18T02:02:32.257Z,99196.31
2022-10-18T02:04:59.151Z,99190.94
2022-10-18T02:07:31.574Z,99193.81
2022-10-18T02:13:02.574Z,99197.13
2022-10-18T02:15:39.603Z,99194.63
2022-10-18T02:18:09.701Z,99192.63
2022-10-18T02:20:36.837Z,99190.81
2022-10-18T02:23:05.603Z,99195.84
2022-10-18T02:25:34.336Z,99188.66
2022-10-18T02:28:01.992Z,99191.34
2022-10-18T02:30:52.086Z,99188.50
2022-10-18T02:33:34.494Z,99188.19
2022-10-18T02:36:05.655Z,99172.84
2022-10-18T02:38:32.505Z,99173.69
2022-10-18T02:40:59.421Z,99177.50
2022-10-18T02:43:26.774Z,99182.34
2022-10-18T02:45:53.548Z,99179.84
2022-10-18T02:48:20.216Z,99180.19
2022-10-18T02:50:46.831Z,99177.00
2022-10-18T02:53:13.427Z,99178.38
2022-10-18T02:55:40.095Z,99179.84
2022-10-18T02:58:06.865Z,99167.69
2022-10-18T03:00:33.486Z,99163.97
2022-10-18T03:03:00.135Z,99171.50
2022-10-18T03:05:26.745Z,99180.50
2022-10-18T03:07:53.417Z,99181.13
2022-10-18T03:10:20.032Z,99163.63
2022-10-18T03:12:46.644Z,99170.13
2022-10-18T03:15:13.315Z,99173.50
2022-10-18T03:17:39.985Z,99172.47
2022-10-18T03:20:07.170Z,99174.16
2022-10-18T03:22:33.840Z,99168.63
2022-10-18T03:25:00.636Z,99166.63
2022-10-18T03:27:27.261Z,99174.31
2022-10-18T03:29:53.862Z,99164.47
2022-10-18T03:32:20.567Z,99170.97
2022-10-18T03:34:47.261Z,99174.50
2022-10-18T03:37:13.900Z,99166.66
2022-10-18T03:39:40.489Z,99160.84
2022-10-18T03:42:07.214Z,99168.00
2022-10-18T03:44:33.885Z,99160.16
2022-10-18T03:47:00.561Z,99163.84
2022-10-18T03:49:27.224Z,99169.84
2022-10-18T03:51:53.939Z,99160.84
2022-10-18T03:54:20.548Z,99156.69
2022-10-18T03:56:47.337Z,99165.34
2022-10-18T03:59:14.263Z,99160.16
2022-10-18T04:01:40.944Z,99162.69
2022-10-18T04:04:07.789Z,99162.00
2022-10-18T04:06:34.532Z,99157.50
2022-10-18T04:09:02.354Z,99156.34
2022-10-18T04:11:31.136Z,99161.16
2022-10-18T04:13:57.817Z,99155.34
2022-10-18T04:16:24.726Z,99156.34
2022-10-18T04:18:51.352Z,99160.00
2022-10-18T04:21:18.134Z,99160.66
2022-10-18T04:23:47.941Z,99163.81
2022-10-18T04:26:16.570Z,99161.81
2022-10-18T04:28:44.058Z,99168.88
2022-10-18T04:31:11.395Z,99169.16
2022-10-18T04:33:38.774Z,99162.16
2022-10-18T04:36:05.523Z,99163.66
2022-10-18T04:38:32.164Z,99162.69
2022-10-18T04:40:58.854Z,99162.53
2022-10-18T04:43:25.601Z,99163.66
2022-10-18T04:45:52.356Z,99168.34
2022-10-18T04:48:19.180Z,99173.03
2022-10-18T04:50:48.868Z,99175.03
2022-10-18T04:53:16.558Z,99174.22
2022-10-18T04:55:45.320Z,99180.84
2022-10-18T04:58:12.096Z,99179.50
2022-10-18T05:00:40.082Z,99180.84
2022-10-18T05:03:07.663Z,99185.16
2022-10-18T05:05:49.709Z,99182.50
2022-10-18T05:08:21.961Z,99178.50
2022-10-18T05:10:48.607Z,99174.16
2022-10-18T05:13:15.411Z,99176.50
2022-10-18T05:15:42.568Z,99178.88
2022-10-18T05:18:09.233Z,99182.19
2022-10-18T05:20:35.906Z,99186.84
2022-10-18T05:23:02.672Z,99185.84
2022-10-18T05:25:29.349Z,99180.34
2022-10-18T05:27:56.818Z,99171.69
2022-10-18T05:30:23.509Z,99177.69
2022-10-18T05:32:50.172Z,99171.38
2022-10-18T05:35:16.932Z,99167.53
2022-10-18T05:37:43.572Z,99176.38
2022-10-18T05:40:10.983Z,99179.53
2022-10-18T05:42:37.673Z,99178.34
2022-10-18T05:45:04.527Z,99186.16
2022-10-18T05:47:31.395Z,99182.88
2022-10-18T05:49:58.129Z,99174.53
2022-10-18T05:52:24.870Z,99194.16
2022-10-18T05:54:52.335Z,99183.16
2022-10-18T05:57:19.384Z,99190.34
2022-10-18T05:59:46.264Z,99182.53
2022-10-18T06:02:13.227Z,99188.34
2022-10-18T06:04:39.944Z,99183.19
2022-10-18T06:07:12.698Z,99182.19
2022-10-18T06:09:39.332Z,99180.19
2022-10-18T06:12:06.099Z,99186.34
2022-10-18T06:14:32.948Z,99179.38
2022-10-18T06:16:59.828Z,99187.03
2022-10-18T06:19:26.959Z,99187.84
2022-10-18T06:21:53.604Z,99189.50
2022-10-18T06:24:21.671Z,99189.84
2022-10-18T06:26:49.372Z,99189.84
2022-10-18T06:29:16.070Z,99192.03
2022-10-18T06:31:42.727Z,99193.19
2022-10-18T06:34:09.651Z,99198.16
2022-10-18T06:36:36.262Z,99193.97
2022-10-18T06:39:03.027Z,99193.41
2022-10-18T06:41:29.707Z,99198.16
2022-10-18T06:44:07.299Z,99188.25
2022-10-18T06:46:33.999Z,99202.56
2022-10-18T06:49:00.704Z,99198.69
2022-10-18T06:51:27.323Z,99204.63
2022-10-18T06:54:06.218Z,99207.75
2022-10-18T06:56:40.824Z,99214.59
2022-10-18T06:59:07.519Z,99210.69
2022-10-18T07:01:34.237Z,99218.44
2022-10-18T07:04:00.957Z,99212.09
2022-10-18T07:06:27.740Z,99211.28
2022-10-18T07:08:54.810Z,99210.78
2022-10-18T07:11:25.093Z,99204.19
2022-10-18T07:13:54.518Z,99208.47
2022-10-18T07:16:21.499Z,99205.06
2022-10-18T07:18:49.978Z,99204.53
2022-10-18T07:21:19.084Z,99206.00
2022-10-18T07:23:46.483Z,99207.31
2022-10-18T07:26:25.523Z,99209.97
2022-10-18T07:28:55.370Z,99219.50
2022-10-18T07:31:22.992Z,99220.97
2022-10-18T07:33:49.672Z,99218.84
2022-10-18T07:36:16.818Z,99223.47
2022-10-18T07:38:44.667Z,99222.28
2022-10-18T07:41:12.967Z,99221.25
2022-10-18T07:43:47.699Z,99219.56
2022-10-18T07:46:15.172Z,99222.06
2022-10-18T07:48:42.106Z,99227.16
2022-10-18T07:51:09.384Z,99219.41
2022-10-18T07:53:36.369Z,99220.34
2022-10-18T07:56:08.692Z,99213.69
2022-10-18T07:58:36.626Z,99216.94
2022-10-18T08:01:07.396Z,99212.97
2022-10-18T08:03:35.252Z,99217.56
2022-10-18T08:06:02.261Z,99216.63
2022-10-18T08:08:29.264Z,99224.03
2022-10-18T08:10:56.237Z,99228.63
2022-10-18T08:13:22.924Z,99221.38
2022-10-18T08:15:49.564Z,99225.03
2022-10-18T08:18:16.221Z,99235.13
2022-10-18T08:20:46.282Z,99239.00
2022-10-18T08:23:13.049Z,99236.06
2022-10-18T08:25:39.987Z,99245.00
2022-10-18T08:28:07.381Z,99247.75
2022-10-18T08:30:35.373Z,99250.94
2022-10-18T08:33:02.970Z,99249.84
2022-10-18T08:35:29.661Z,99250.88
2022-10-18T08:37:56.231Z,99253.84
2022-10-18T08:40:23.099Z,99260.84
2022-10-18T08:43:01.896Z,99254.31
2022-10-18T08:45:41.566Z,99254.69
2022-10-18T08:48:18.038Z,99255.00
2022-10-18T08:50:45.458Z,99253.72
2022-10-18T08:53:17.676Z,99252.25
2022-10-18T08:56:14.667Z,99257.09
2022-10-18T08:58:44.045Z,99260.28
2022-10-18T09:01:33.011Z,99266.78
2022-10-18T09:04:23.969Z,99265.66
2022-10-18T09:07:08.585Z,99273.91
2022-10-18T09:10:03.174Z,99261.25
2022-10-18T09:12:50.782Z,99269.50
2022-10-18T09:15:23.324Z,99265.53
2022-10-18T09:18:23.814Z,99269.31
2022-10-18T09:21:00.086Z,99277.00
2022-10-18T09:23:41.170Z,99282.28
2022-10-18T09:26:15.447Z,99290.44
2022-10-18T09:29:12.587Z,99291.16
2022-10-18T09:32:16.772Z,99294.34
2022-10-18T09:34:51.505Z,99290.00
2022-10-18T09:37:20.142Z,99283.66
2022-10-18T09:39:48.387Z,99283.91
2022-10-18T09:42:26.667Z,99289.44
2022-10-18T09:45:01.233Z,99285.81
2022-10-18T09:47:34.058Z,99297.94
2022-10-18T09:50:33.804Z,99291.16
2022-10-18T09:53:25.921Z,99295.22
2022-10-18T09:56:00.932Z,99287.38
2022-10-18T09:58:44.130Z,99295.84
2022-10-18T10:01:22.104Z,99287.28
2022-10-18T10:03:48.744Z,99294.50
2022-10-18T10:06:16.307Z,99300.13
2022-10-18T10:08:45.116Z,99297.22
2022-10-18T10:11:31.151Z,99297.97
2022-10-18T10:14:07.838Z,99298.78
2022-10-18T10:16:43.200Z,99304.88
2022-10-18T10:19:17.557Z,99304.25
2022-10-18T10:21:44.335Z,99296.56
2022-10-18T10:24:21.611Z,99304.16
2022-10-18T10:26:48.731Z,99302.94
2022-10-18T10:30:05.805Z,99289.19
2022-10-18T10:32:47.371Z,99291.13
2022-10-18T10:35:42.233Z,99290.53
2022-10-18T10:38:23.744Z,99287.28
2022-10-18T10:40:50.919Z,99292.66
2022-10-18T10:43:38.682Z,99280.03
2022-10-18T10:46:15.034Z,99290.28
2022-10-18T10:49:00.376Z,99281.78
2022-10-18T10:51:39.528Z,99283.91
2022-10-18T10:54:22.574Z,99279.59
2022-10-18T10:57:04.045Z,99276.84
2022-10-18T10:59:34.313Z,99282.47
2022-10-18T11:02:19.283Z,99286.34
2022-10-18T11:04:47.435Z,99284.13
2022-10-18T11:07:33.626Z,99277.28
2022-10-18T11:10:06.975Z,99277.56
2022-10-18T11:12:36.838Z,99279.03
2022-10-18T11:15:03.387Z,99273.41
2022-10-18T11:17:35.822Z,99274.63
2022-10-18T11:20:20.932Z,99273.72
2022-10-18T11:22:56.426Z,99274.03
2022-10-18T11:25:26.074Z,99274.03
2022-10-18T11:28:04.331Z,99268.59
2022-10-18T11:30:40.182Z,99263.38
2022-10-18T11:33:18.621Z,99265.97
2022-10-18T11:35:51.069Z,99260.41
2022-10-18T11:38:36.329Z,99256.16
2022-10-18T11:41:24.886Z,99260.53
2022-10-18T11:44:03.628Z,99247.91
2022-10-18T11:46:47.828Z,99260.94
2022-10-18T11:49:41.752Z,99249.97
2022-10-18T11:52:15.889Z,99252.66
2022-10-18T11:54:52.530Z,99250.19
2022-10-18T11:57:44.516Z,99257.44
2022-10-18T12:00:39.637Z,99257.19
2022-10-18T12:03:22.809Z,99253.50
2022-10-18T12:05:50.440Z,99255.34
2022-10-18T12:08:23.786Z,99250.97
2022-10-18T12:11:07.934Z,99249.72
2022-10-18T12:13:45.195Z,99239.19
2022-10-18T12:16:12.417Z,99243.53
2022-10-18T12:19:13.133Z,99251.56
2022-10-18T12:21:40.738Z,99247.16
2022-10-18T12:24:09.089Z,99243.41
2022-10-18T12:26:36.386Z,99241.75
2022-10-18T12:29:16.331Z,99235.38
2022-10-18T12:31:48.645Z,99231.50
2022-10-18T12:34:15.196Z,99238.56
2022-10-18T12:37:15.677Z,99240.97
2022-10-18T12:40:09.323Z,99233.09
2022-10-18T12:42:44.501Z,99236.78
2022-10-18T12:45:19.245Z,99233.13
2022-10-18T12:47:45.831Z,99239.97
2022-10-18T12:50:32.460Z,99240.19
2022-10-18T12:53:03.686Z,99238.50
2022-10-18T12:55:33.357Z,99233.31
2022-10-18T12:58:01.211Z,99231.03
2022-10-18T13:00:30.888Z,99226.09
2022-10-18T13:03:16.511Z,99226.44
2022-10-18T13:05:54.690Z,99234.97
2022-10-18T13:08:28.242Z,99237.44
2022-10-18T13:11:07.101Z,99240.91
2022-10-18T13:13:58.499Z,99240.91
2022-10-18T13:16:46.264Z,99243.19
2022-10-18T13:19:31.317Z,99233.88
2022-10-18T13:22:07.381Z,99232.97
2022-10-18T13:24:44.079Z,99238.72
2022-10-18T13:27:37.009Z,99235.16
2022-10-18T13:30:40.092Z,99243.78
2022-10-18T13:33:33.182Z,99238.72
2022-10-18T13:36:02.340Z,99236.78
2022-10-18T13:38:38.689Z,99232.09
2022-10-18T13:41:11.633Z,99235.22
2022-10-18T13:43:53.699Z,99240.59
2022-10-18T13:46:33.390Z,99235.25
2022-10-18T13:49:20.245Z,99236.25
2022-10-18T13:52:14.521Z,99237.00
2022-10-18T13:54:50.015Z,99239.09
2022-10-18T13:57:53.772Z,99243.22
2022-10-18T14:00:48.839Z,99245.47
2022-10-18T14:03:55.712Z,99242.91
2022-10-18T14:06:28.565Z,99246.19
2022-10-18T14:09:09.534Z,99249.25
2022-10-18T14:11:51.406Z,99246.53
2022-10-18T14:14:46.507Z,99248.50
2022-10-18T14:17:29.884Z,99255.91
2022-10-18T14:20:40.094Z,99252.41
2022-10-18T14:23:24.150Z,99252.00
2022-10-18T14:25:50.800Z,99253.31
2022-10-18T14:28:21.684Z,99260.63
2022-10-18T14:31:00.171Z,99262.50
2022-10-18T14:33:30.596Z,99262.16
2022-10-18T14:36:04.273Z,99264.06
2022-10-18T14:38:31.156Z,99261.44
2022-10-18T14:41:13.041Z,99264.75
2022-10-18T14:43:39.779Z,99267.44
2022-10-18T14:46:27.243Z,99268.06
2022-10-18T14:49:01.734Z,99267.03
2022-10-18T14:51:29.340Z,99261.19
2022-10-18T14:53:56.318Z,99262.25
2022-10-18T14:56:28.138Z,99262.38
2022-10-18T14:58:56.711Z,99261.09
2022-10-18T15:01:26.319Z,99264.59
2022-10-18T15:03:58.270Z,99258.78
2022-10-18T15:06:28.180Z,99261.22
2022-10-18T15:08:57.605Z,99261.03
2022-10-18T15:11:36.111Z,99257.47
2022-10-18T15:14:08.807Z,99257.47
2022-10-18T15:16:38.444Z,99257.88
2022-10-18T15:19:23.846Z,99265.84
2022-10-18T15:25:17.146Z,99256.88
2022-10-18T15:27:48.951Z,99256.31
2022-10-18T15:30:25.001Z,99261.47
2022-10-18T15:33:07.526Z,99259.19
2022-10-18T15:35:36.719Z,99255.00
2022-10-18T15:38:17.093Z,99250.03
2022-10-18T15:40:44.038Z,99251.69
2022-10-18T15:43:22.936Z,99248.75
2022-10-18T15:45:52.324Z,99244.94
2022-10-18T15:48:27.850Z,99251.09
2022-10-18T15:51:02.101Z,99252.97
2022-10-18T15:53:41.872Z,99244.66
2022-10-18T15:56:37.667Z,99245.09
2022-10-18T15:59:23.251Z,99246.72
2022-10-18T16:01:57.914Z,99242.56
2022-10-18T16:04:43.373Z,99249.09
2022-10-18T16:07:12.251Z,99255.88
2022-10-18T16:09:39.014Z,99253.72
2022-10-18T16:12:05.628Z,99257.16
2022-10-18T16:14:32.569Z,99263.09
2022-10-18T16:17:01.082Z,99260.34
2022-10-18T16:19:28.508Z,99263.22
2022-10-18T16:21:55.590Z,99258.44
2022-10-18T16:24:22.595Z,99261.75
2022-10-18T16:26:49.789Z,99258.81
2022-10-18T16:29:21.697Z,99258.16
2022-10-18T16:31:48.396Z,99265.56
2022-10-18T16:34:15.371Z,99265.50
2022-10-18T16:36:41.981Z,99261.94
2022-10-18T16:39:15.279Z,99267.19
2022-10-18T16:41:42.025Z,99273.09
2022-10-18T16:44:08.685Z,99267.81
2022-10-18T16:46:35.467Z,99274.81
2022-10-18T16:49:02.514Z,99272.34
2022-10-18T16:51:29.365Z,99276.63
2022-10-18T16:53:55.984Z,99282.19
2022-10-18T16:56:26.796Z,99280.06
2022-10-18T16:58:53.776Z,99282.72
2022-10-18T17:01:21.989Z,99288.09
2022-10-18T17:03:48.817Z,99290.13
2022-10-18T17:06:26.683Z,99296.47
2022-10-18T17:08:54.034Z,99299.88
2022-10-18T17:11:21.893Z,99307.47
2022-10-18T17:13:48.692Z,99302.50
2022-10-18T17:16:33.473Z,99310.56
2022-10-18T17:19:02.884Z,99310.56
2022-10-18T17:21:30.132Z,99313.03
2022-10-18T17:24:03.143Z,99311.09
2022-10-18T17:26:30.745Z,99319.13
2022-10-18T17:29:00.177Z,99325.22
2022-10-18T17:31:27.786Z,99320.03
2022-10-18T17:33:55.529Z,99322.44
2022-10-18T17:36:22.505Z,99315.41
2022-10-18T17:38:53.456Z,99318.28
2022-10-18T17:41:20.665Z,99319.59
2022-10-18T17:43:48.469Z,99323.47
2022-10-18T17:46:16.011Z,99321.56
2022-10-18T17:48:42.912Z,99319.53
2022-10-18T17:51:15.392Z,99318.22
2022-10-18T17:53:42.205Z,99316.56
2022-10-18T17:56:10.361Z,99318.88
2022-10-18T17:58:37.585Z,99322.94
2022-10-18T18:01:23.204Z,99323.69
2022-10-18T18:03:50.756Z,99334.94
2022-10-18T18:06:22.726Z,99334.78
2022-10-18T18:08:50.231Z,99334.56
2022-10-18T18:11:17.818Z,99336.31
2022-10-18T18:13:44.612Z,99337.91
2022-10-18T18:16:17.412Z,99340.91
2022-10-18T18:18:50.489Z,99338.81
2022-10-18T18:21:20.954Z,99344.72
2022-10-18T18:23:48.993Z,99346.47
2022-10-18T18:26:17.415Z,99343.50
2022-10-18T18:28:44.375Z,99338.06
2022-10-18T18:31:19.470Z,99345.13
2022-10-18T18:33:46.205Z,99342.16
2022-10-18T18:36:13.124Z,99334.66
2022-10-18T18:38:42.661Z,99344.09
2022-10-18T18:41:16.718Z,99337.44
2022-10-18T18:43:51.868Z,99337.69
2022-10-18T18:46:18.829Z,99340.72
2022-10-18T18:48:45.515Z,99333.94
2022-10-18T18:51:14.887Z,99332.13
2022-10-18T18:53:42.673Z,99340.50
2022-10-18T18:56:12.737Z,99341.69
2022-10-18T18:58:40.553Z,99344.22
2022-10-18T19:01:09.053Z,99335.78
2022-10-18T19:03:36.081Z,99348.28
2022-10-18T19:06:07.535Z,99343.28
2022-10-18T19:08:39.290Z,99345.00
2022-10-18T19:11:09.186Z,99335.69
2022-10-18T19:13:36.609Z,99337.84
2022-10-18T19:16:24.448Z,99328.88
2022-10-18T19:19:14.484Z,99323.38
2022-10-18T19:21:58.461Z,99324.09
2022-10-18T19:24:26.611Z,99321.28
2022-10-18T19:26:57.962Z,99321.81
2022-10-18T19:29:30.223Z,99320.31
2022-10-18T19:31:58.794Z,99325.88
2022-10-18T19:34:26.793Z,99321.19
2022-10-18T19:36:53.417Z,99331.94
2022-10-18T19:39:23.937Z,99327.16
2022-10-18T19:41:53.211Z,99325.00
2022-10-18T19:44:20.267Z,99323.66
2022-10-18T19:46:47.240Z,99319.81
2022-10-18T19:49:14.195Z,99323.19
2022-10-18T19:51:40.983Z,99322.88
2022-10-18T19:54:07.750Z,99318.88
2022-10-18T19:56:34.447Z,99323.59
2022-10-18T19:59:01.310Z,99325.28
2022-10-18T20:01:29.161Z,99318.28
2022-10-18T20:03:56.100Z,99318.28
2022-10-18T20:06:22.903Z,99321.78
2022-10-18T20:08:50.092Z,99319.44
2022-10-18T20:11:19.533Z,99323.00
2022-10-18T20:13:46.620Z,99325.13
2022-10-18T20:16:14.540Z,99317.78
2022-10-18T20:18:43.257Z,99311.44
2022-10-18T20:21:11.893Z,99312.81
2022-10-18T20:23:40.159Z,99327.50
2022-10-18T20:26:17.991Z,99323.16
2022-10-18T20:28:56.941Z,99330.34
2022-10-18T20:31:31.762Z,99324.19
2022-10-18T20:34:00.706Z,99329.31
2022-10-18T20:36:29.025Z,99325.13
2022-10-18T20:38:56.327Z,99324.47
2022-10-18T20:41:36.481Z,99323.81
2022-10-18T20:44:05.547Z,99327.19
2022-10-18T20:46:34.278Z,99317.66
2022-10-18T20:49:00.966Z,99318.53
2022-10-18T20:51:28.088Z,99322.91
2022-10-18T20:53:54.897Z,99315.88
2022-10-18T20:56:27.192Z,99323.75
2022-10-18T20:58:56.294Z,99321.75
2022-10-18T21:01:25.394Z,99313.09
2022-10-18T21:03:53.547Z,99307.91
2022-10-18T21:06:32.288Z,99316.75
2022-10-18T21:09:01.325Z,99308.56
2022-10-18T21:11:29.008Z,99306.75
2022-10-18T21:14:00.243Z,99299.91
2022-10-18T21:16:27.338Z,99308.25
2022-10-18T21:18:54.044Z,99307.59
2022-10-18T21:21:23.171Z,99314.25
2022-10-18T21:23:50.488Z,99307.59
2022-10-18T21:26:20.229Z,99312.44
2022-10-18T21:28:47.541Z,99308.41
2022-10-18T21:31:17.917Z,99305.94
2022-10-18T21:33:45.695Z,99307.72
2022-10-18T21:36:12.697Z,99308.06
2022-10-18T21:38:39.575Z,99305.75
2022-10-18T21:41:10.823Z,99310.25
2022-10-18T21:43:45.202Z,99303.41
2022-10-18T21:46:12.736Z,99300.41
2022-10-18T21:48:42.936Z,99308.91
2022-10-18T21:51:10.176Z,99310.75
2022-10-18T21:53:36.859Z,99304.94
2022-10-18T21:56:10.624Z,99302.75
2022-10-18T21:58:37.495Z,99289.56
2022-10-18T22:01:12.310Z,99290.56
2022-10-18T22:03:39.534Z,99291.59
2022-10-18T22:06:13.325Z,99281.72
2022-10-18T22:08:41.438Z,99282.53
2022-10-18T22:11:08.994Z,99282.06
2022-10-18T22:13:35.680Z,99283.72
2022-10-18T22:16:04.999Z,99285.84
2022-10-18T22:18:32.208Z,99280.84
2022-10-18T22:21:01.415Z,99282.88
2022-10-18T22:23:36.059Z,99285.19
2022-10-18T22:26:07.789Z,99282.53
2022-10-18T22:28:35.613Z,99281.72
2022-10-18T22:31:02.508Z,99283.03
2022-10-18T22:33:29.359Z,99276.19
2022-10-18T22:35:55.997Z,99284.19
2022-10-18T22:38:23.182Z,99283.72
2022-10-18T22:40:50.271Z,99281.41
2022-10-18T22:43:16.967Z,99273.41
2022-10-18T22:45:43.731Z,99273.56
2022-10-18T22:48:10.434Z,99265.06
2022-10-18T22:50:37.088Z,99271.91
2022-10-18T22:53:03.776Z,99268.53
2022-10-18T22:55:30.487Z,99266.56
2022-10-18T22:57:57.096Z,99274.19
2022-10-18T23:00:23.745Z,99268.69
2022-10-18T23:02:50.496Z,99264.03
2022-10-18T23:05:17.236Z,99258.34
2022-10-18T23:07:49.066Z,99261.03
2022-10-18T23:10:15.811Z,99263.69
2022-10-18T23:12:42.496Z,99258.00
2022-10-18T23:15:09.602Z,99255.53
2022-10-18T23:17:36.760Z,99258.19
2022-10-18T23:20:04.608Z,99260.19
2022-10-18T23:22:31.674Z,99260.50
2022-10-18T23:24:58.473Z,99257.31
2022-10-18T23:27:25.343Z,99252.16
2022-10-18T23:29:51.995Z,99254.16
2022-10-18T23:32:18.649Z,99259.16
2022-10-18T23:34:45.264Z,99254.66
2022-10-18T23:37:11.935Z,99255.13
2022-10-18T23:39:38.661Z,99253.50
2022-10-18T23:42:05.361Z,99255.31
2022-10-18T23:44:32.030Z,99247.47
2022-10-18T23:46:58.647Z,99242.47
2022-10-18T23:49:25.293Z,99243.50
2022-10-18T23:51:52.062Z,99253.13
2022-10-18T23:54:18.680Z,99254.63
2022-10-18T23:56:45.327Z,99257.13
2022-10-18T23:59:11.981Z,99261.13
